sensor_id;sensor_type;location;lat;lon;timestamp;P1;durP1;ratioP1;P2;durP2;ratioP2
60088;SDS011;45961;53.574;55.878;2023-08-17T00:00:40;8.43;;;6.55;;
60088;SDS011;45961;53.574;55.878;2023-08-17T00:01:41;7.70;;;6.93;;
60088;SDS011;45961;53.574;55.878;2023-08-17T00:02:42;8.52;;;6.20;;
60088;SDS011;45961;53.574;55.878;2023-08-17T00:03:43;7.47;;;6.35;;
60088;SDS011;45961;53.574;55.878;2023-08-17T00:05:47;9.50;;;6.53;;
60088;SDS011;45961;53.574;55.878;2023-08-17T00:06:48;8.20;;;6.60;;
60088;SDS011;45961;53.574;55.878;2023-08-17T00:07:49;9.23;;;6.57;;
60088;SDS011;45961;53.574;55.878;2023-08-17T00:08:50;6.65;;;5.63;;
60088;SDS011;45961;53.574;55.878;2023-08-17T00:09:54;8.50;;;6.30;;
60088;SDS011;45961;53.574;55.878;2023-08-17T00:10:55;10.70;;;6.18;;
60088;SDS011;45961;53.574;55.878;2023-08-17T00:11:56;14.45;;;6.32;;
60088;SDS011;45961;53.574;55.878;2023-08-17T00:12:57;7.15;;;6.20;;
60088;SDS011;45961;53.574;55.878;2023-08-17T00:13:58;6.90;;;5.93;;
60088;SDS011;45961;53.574;55.878;2023-08-17T00:15:00;7.03;;;5.65;;
60088;SDS011;45961;53.574;55.878;2023-08-17T00:16:01;10.77;;;6.13;;
60088;SDS011;45961;53.574;55.878;2023-08-17T00:17:02;8.32;;;5.72;;
60088;SDS011;45961;53.574;55.878;2023-08-17T00:18:03;7.35;;;5.80;;
60088;SDS011;45961;53.574;55.878;2023-08-17T00:19:04;6.93;;;5.03;;
60088;SDS011;45961;53.574;55.878;2023-08-17T00:20:05;8.13;;;5.68;;
60088;SDS011;45961;53.574;55.878;2023-08-17T00:21:07;7.88;;;5.38;;
60088;SDS011;45961;53.574;55.878;2023-08-17T00:22:09;8.57;;;5.93;;
60088;SDS011;45961;53.574;55.878;2023-08-17T00:23:10;6.60;;;5.57;;
60088;SDS011;45961;53.574;55.878;2023-08-17T00:24:11;7.25;;;5.40;;
60088;SDS011;45961;53.574;55.878;2023-08-17T00:25:12;6.30;;;5.70;;
60088;SDS011;45961;53.574;55.878;2023-08-17T00:27:14;7.90;;;5.53;;
60088;SDS011;45961;53.574;55.878;2023-08-17T00:28:18;8.27;;;5.22;;
60088;SDS011;45961;53.574;55.878;2023-08-17T00:29:19;8.10;;;5.78;;
60088;SDS011;45961;53.574;55.878;2023-08-17T00:30:21;8.38;;;5.18;;
60088;SDS011;45961;53.574;55.878;2023-08-17T00:31:22;8.50;;;5.63;;
60088;SDS011;45961;53.574;55.878;2023-08-17T00:32:23;7.80;;;5.63;;
60088;SDS011;45961;53.574;55.878;2023-08-17T00:33:25;8.68;;;5.43;;
60088;SDS011;45961;53.574;55.878;2023-08-17T00:34:27;6.05;;;5.55;;
60088;SDS011;45961;53.574;55.878;2023-08-17T00:35:28;6.28;;;5.30;;
60088;SDS011;45961;53.574;55.878;2023-08-17T00:36:31;7.63;;;5.25;;
60088;SDS011;45961;53.574;55.878;2023-08-17T00:37:32;6.45;;;5.35;;
60088;SDS011;45961;53.574;55.878;2023-08-17T00:38:33;6.60;;;5.65;;
60088;SDS011;45961;53.574;55.878;2023-08-17T00:39:34;8.02;;;5.88;;
60088;SDS011;45961;53.574;55.878;2023-08-17T00:40:35;7.80;;;5.35;;
60088;SDS011;45961;53.574;55.878;2023-08-17T00:41:35;5.70;;;5.10;;
60088;SDS011;45961;53.574;55.878;2023-08-17T00:42:37;7.28;;;5.82;;
60088;SDS011;45961;53.574;55.878;2023-08-17T00:43:38;6.30;;;5.70;;
60088;SDS011;45961;53.574;55.878;2023-08-17T00:44:39;9.80;;;5.65;;
60088;SDS011;45961;53.574;55.878;2023-08-17T00:45:40;6.50;;;5.70;;
60088;SDS011;45961;53.574;55.878;2023-08-17T00:46:43;7.28;;;5.78;;
60088;SDS011;45961;53.574;55.878;2023-08-17T00:47:44;7.13;;;5.70;;
60088;SDS011;45961;53.574;55.878;2023-08-17T00:48:45;8.23;;;6.05;;
60088;SDS011;45961;53.574;55.878;2023-08-17T00:49:46;9.07;;;6.10;;
60088;SDS011;45961;53.574;55.878;2023-08-17T00:50:48;7.63;;;6.13;;
60088;SDS011;45961;53.574;55.878;2023-08-17T00:51:51;8.45;;;6.25;;
60088;SDS011;45961;53.574;55.878;2023-08-17T00:52:52;7.57;;;6.20;;
60088;SDS011;45961;53.574;55.878;2023-08-17T00:53:56;6.38;;;5.85;;
60088;SDS011;45961;53.574;55.878;2023-08-17T00:54:59;8.43;;;6.25;;
60088;SDS011;45961;53.574;55.878;2023-08-17T00:56:01;8.70;;;5.97;;
60088;SDS011;45961;53.574;55.878;2023-08-17T00:57:03;6.93;;;6.20;;
60088;SDS011;45961;53.574;55.878;2023-08-17T00:58:07;7.15;;;5.75;;
60088;SDS011;45961;53.574;55.878;2023-08-17T01:00:10;7.13;;;6.20;;
60088;SDS011;45961;53.574;55.878;2023-08-17T01:01:13;6.93;;;6.07;;
60088;SDS011;45961;53.574;55.878;2023-08-17T01:02:14;9.48;;;5.88;;
60088;SDS011;45961;53.574;55.878;2023-08-17T01:03:15;8.60;;;6.07;;
60088;SDS011;45961;53.574;55.878;2023-08-17T01:04:19;6.97;;;6.35;;
60088;SDS011;45961;53.574;55.878;2023-08-17T01:05:21;8.57;;;6.68;;
60088;SDS011;45961;53.574;55.878;2023-08-17T01:06:22;9.05;;;7.00;;
60088;SDS011;45961;53.574;55.878;2023-08-17T01:07:30;8.18;;;7.10;;
60088;SDS011;45961;53.574;55.878;2023-08-17T01:08:31;10.40;;;7.00;;
60088;SDS011;45961;53.574;55.878;2023-08-17T01:09:32;7.53;;;6.22;;
60088;SDS011;45961;53.574;55.878;2023-08-17T01:10:55;8.07;;;6.18;;
60088;SDS011;45961;53.574;55.878;2023-08-17T01:14:01;9.68;;;6.32;;
60088;SDS011;45961;53.574;55.878;2023-08-17T01:15:13;10.55;;;6.57;;
60088;SDS011;45961;53.574;55.878;2023-08-17T01:16:20;6.78;;;6.15;;
60088;SDS011;45961;53.574;55.878;2023-08-17T01:17:33;6.35;;;5.75;;
60088;SDS011;45961;53.574;55.878;2023-08-17T01:18:39;8.63;;;6.13;;
60088;SDS011;45961;53.574;55.878;2023-08-17T01:19:42;6.40;;;5.80;;
60088;SDS011;45961;53.574;55.878;2023-08-17T01:20:45;7.65;;;6.63;;
60088;SDS011;45961;53.574;55.878;2023-08-17T01:21:49;8.48;;;6.60;;
60088;SDS011;45961;53.574;55.878;2023-08-17T01:22:56;7.82;;;7.03;;
60088;SDS011;45961;53.574;55.878;2023-08-17T01:24:06;10.05;;;6.47;;
60088;SDS011;45961;53.574;55.878;2023-08-17T01:25:08;7.68;;;6.75;;
60088;SDS011;45961;53.574;55.878;2023-08-17T01:26:10;8.38;;;6.85;;
60088;SDS011;45961;53.574;55.878;2023-08-17T01:27:11;9.40;;;6.57;;
60088;SDS011;45961;53.574;55.878;2023-08-17T01:29:13;7.77;;;6.37;;
60088;SDS011;45961;53.574;55.878;2023-08-17T01:30:14;7.85;;;6.35;;
60088;SDS011;45961;53.574;55.878;2023-08-17T01:31:35;8.95;;;6.22;;
60088;SDS011;45961;53.574;55.878;2023-08-17T01:33:55;13.00;;;7.35;;
60088;SDS011;45961;53.574;55.878;2023-08-17T01:35:01;10.15;;;6.72;;
60088;SDS011;45961;53.574;55.878;2023-08-17T01:36:20;8.10;;;7.18;;
60088;SDS011;45961;53.574;55.878;2023-08-17T01:37:26;7.60;;;6.93;;
60088;SDS011;45961;53.574;55.878;2023-08-17T01:38:30;9.98;;;6.47;;
60088;SDS011;45961;53.574;55.878;2023-08-17T01:39:37;7.25;;;6.55;;
60088;SDS011;45961;53.574;55.878;2023-08-17T01:40:41;8.30;;;7.03;;
60088;SDS011;45961;53.574;55.878;2023-08-17T01:41:45;10.75;;;6.55;;
60088;SDS011;45961;53.574;55.878;2023-08-17T01:42:48;9.32;;;6.68;;
60088;SDS011;45961;53.574;55.878;2023-08-17T01:43:51;12.55;;;6.82;;
60088;SDS011;45961;53.574;55.878;2023-08-17T01:44:53;9.57;;;6.35;;
60088;SDS011;45961;53.574;55.878;2023-08-17T01:46:56;8.97;;;6.90;;
60088;SDS011;45961;53.574;55.878;2023-08-17T01:47:57;7.28;;;6.57;;
60088;SDS011;45961;53.574;55.878;2023-08-17T01:48:58;9.88;;;6.95;;
60088;SDS011;45961;53.574;55.878;2023-08-17T01:49:59;8.00;;;7.10;;
60088;SDS011;45961;53.574;55.878;2023-08-17T01:51:01;8.32;;;6.95;;
60088;SDS011;45961;53.574;55.878;2023-08-17T01:52:02;10.00;;;7.03;;
60088;SDS011;45961;53.574;55.878;2023-08-17T01:53:10;7.97;;;7.13;;
60088;SDS011;45961;53.574;55.878;2023-08-17T01:54:12;8.35;;;7.05;;
60088;SDS011;45961;53.574;55.878;2023-08-17T01:55:13;9.30;;;7.07;;
60088;SDS011;45961;53.574;55.878;2023-08-17T01:56:14;9.07;;;7.10;;
60088;SDS011;45961;53.574;55.878;2023-08-17T01:57:16;12.32;;;7.25;;
60088;SDS011;45961;53.574;55.878;2023-08-17T01:58:18;10.32;;;7.40;;
60088;SDS011;45961;53.574;55.878;2023-08-17T01:59:20;11.32;;;6.90;;
60088;SDS011;45961;53.574;55.878;2023-08-17T02:00:21;9.85;;;7.20;;
60088;SDS011;45961;53.574;55.878;2023-08-17T02:01:22;8.45;;;6.80;;
60088;SDS011;45961;53.574;55.878;2023-08-17T02:02:26;7.25;;;6.55;;
60088;SDS011;45961;53.574;55.878;2023-08-17T02:03:27;7.85;;;6.63;;
60088;SDS011;45961;53.574;55.878;2023-08-17T02:04:29;9.07;;;6.80;;
60088;SDS011;45961;53.574;55.878;2023-08-17T02:05:32;8.60;;;6.57;;
60088;SDS011;45961;53.574;55.878;2023-08-17T02:06:33;8.27;;;6.70;;
60088;SDS011;45961;53.574;55.878;2023-08-17T02:07:37;7.65;;;6.65;;
60088;SDS011;45961;53.574;55.878;2023-08-17T02:09:39;7.65;;;6.50;;
60088;SDS011;45961;53.574;55.878;2023-08-17T02:10:40;9.30;;;6.70;;
60088;SDS011;45961;53.574;55.878;2023-08-17T02:11:42;8.10;;;6.95;;
60088;SDS011;45961;53.574;55.878;2023-08-17T02:12:43;9.65;;;6.63;;
60088;SDS011;45961;53.574;55.878;2023-08-17T02:13:44;12.63;;;6.90;;
60088;SDS011;45961;53.574;55.878;2023-08-17T02:14:45;9.48;;;6.55;;
60088;SDS011;45961;53.574;55.878;2023-08-17T02:16:47;7.55;;;6.28;;
60088;SDS011;45961;53.574;55.878;2023-08-17T02:17:50;10.75;;;7.00;;
60088;SDS011;45961;53.574;55.878;2023-08-17T02:18:51;9.55;;;6.50;;
60088;SDS011;45961;53.574;55.878;2023-08-17T02:19:52;10.98;;;7.00;;
60088;SDS011;45961;53.574;55.878;2023-08-17T02:20:53;10.60;;;6.50;;
60088;SDS011;45961;53.574;55.878;2023-08-17T02:21:56;10.32;;;6.75;;
60088;SDS011;45961;53.574;55.878;2023-08-17T02:22:57;10.27;;;6.63;;
60088;SDS011;45961;53.574;55.878;2023-08-17T02:23:58;13.95;;;6.55;;
60088;SDS011;45961;53.574;55.878;2023-08-17T02:24:59;11.73;;;6.80;;
60088;SDS011;45961;53.574;55.878;2023-08-17T02:26:01;8.25;;;6.68;;
60088;SDS011;45961;53.574;55.878;2023-08-17T02:27:02;13.55;;;6.97;;
60088;SDS011;45961;53.574;55.878;2023-08-17T02:28:03;15.50;;;7.05;;
60088;SDS011;45961;53.574;55.878;2023-08-17T02:29:04;8.15;;;6.72;;
60088;SDS011;45961;53.574;55.878;2023-08-17T02:30:05;7.65;;;6.93;;
60088;SDS011;45961;53.574;55.878;2023-08-17T02:31:07;13.13;;;6.90;;
60088;SDS011;45961;53.574;55.878;2023-08-17T02:32:08;9.60;;;6.68;;
60088;SDS011;45961;53.574;55.878;2023-08-17T02:33:09;10.07;;;6.40;;
60088;SDS011;45961;53.574;55.878;2023-08-17T02:34:10;10.23;;;6.47;;
60088;SDS011;45961;53.574;55.878;2023-08-17T02:35:11;12.75;;;6.78;;
60088;SDS011;45961;53.574;55.878;2023-08-17T02:36:12;10.32;;;6.95;;
60088;SDS011;45961;53.574;55.878;2023-08-17T02:37:13;7.05;;;6.10;;
60088;SDS011;45961;53.574;55.878;2023-08-17T02:38:14;9.38;;;7.18;;
60088;SDS011;45961;53.574;55.878;2023-08-17T02:39:15;10.50;;;6.38;;
60088;SDS011;45961;53.574;55.878;2023-08-17T02:40:17;12.52;;;6.43;;
60088;SDS011;45961;53.574;55.878;2023-08-17T02:41:18;13.10;;;6.32;;
60088;SDS011;45961;53.574;55.878;2023-08-17T02:42:19;12.25;;;6.72;;
60088;SDS011;45961;53.574;55.878;2023-08-17T02:43:22;11.38;;;6.78;;
60088;SDS011;45961;53.574;55.878;2023-08-17T02:44:26;13.85;;;6.68;;
60088;SDS011;45961;53.574;55.878;2023-08-17T02:45:28;8.02;;;6.85;;
60088;SDS011;45961;53.574;55.878;2023-08-17T02:46:29;9.25;;;6.22;;
60088;SDS011;45961;53.574;55.878;2023-08-17T02:47:30;8.02;;;5.55;;
60088;SDS011;45961;53.574;55.878;2023-08-17T02:48:31;7.28;;;6.10;;
60088;SDS011;45961;53.574;55.878;2023-08-17T02:49:32;9.48;;;6.50;;
60088;SDS011;45961;53.574;55.878;2023-08-17T02:50:33;7.18;;;6.22;;
60088;SDS011;45961;53.574;55.878;2023-08-17T02:52:35;10.13;;;6.13;;
60088;SDS011;45961;53.574;55.878;2023-08-17T02:53:38;11.45;;;6.03;;
60088;SDS011;45961;53.574;55.878;2023-08-17T02:54:39;8.52;;;6.00;;
60088;SDS011;45961;53.574;55.878;2023-08-17T02:55:40;11.48;;;6.43;;
60088;SDS011;45961;53.574;55.878;2023-08-17T02:56:42;9.35;;;5.90;;
60088;SDS011;45961;53.574;55.878;2023-08-17T02:57:43;9.63;;;6.05;;
60088;SDS011;45961;53.574;55.878;2023-08-17T02:58:44;7.80;;;5.80;;
60088;SDS011;45961;53.574;55.878;2023-08-17T02:59:45;12.52;;;6.03;;
60088;SDS011;45961;53.574;55.878;2023-08-17T03:01:48;11.02;;;6.05;;
60088;SDS011;45961;53.574;55.878;2023-08-17T03:02:49;6.78;;;5.80;;
60088;SDS011;45961;53.574;55.878;2023-08-17T03:03:50;10.25;;;5.60;;
60088;SDS011;45961;53.574;55.878;2023-08-17T03:04:51;7.22;;;5.50;;
60088;SDS011;45961;53.574;55.878;2023-08-17T03:05:52;10.45;;;5.85;;
60088;SDS011;45961;53.574;55.878;2023-08-17T03:06:53;7.97;;;5.78;;
60088;SDS011;45961;53.574;55.878;2023-08-17T03:07:55;10.77;;;5.85;;
60088;SDS011;45961;53.574;55.878;2023-08-17T03:08:56;7.85;;;5.28;;
60088;SDS011;45961;53.574;55.878;2023-08-17T03:09:57;8.43;;;5.55;;
60088;SDS011;45961;53.574;55.878;2023-08-17T03:10:59;7.35;;;5.18;;
60088;SDS011;45961;53.574;55.878;2023-08-17T03:12:00;12.85;;;6.20;;
60088;SDS011;45961;53.574;55.878;2023-08-17T03:13:01;12.30;;;5.75;;
60088;SDS011;45961;53.574;55.878;2023-08-17T03:15:06;8.65;;;5.55;;
60088;SDS011;45961;53.574;55.878;2023-08-17T03:16:09;10.88;;;5.82;;
60088;SDS011;45961;53.574;55.878;2023-08-17T03:17:11;7.15;;;5.60;;
60088;SDS011;45961;53.574;55.878;2023-08-17T03:18:12;7.38;;;5.68;;
60088;SDS011;45961;53.574;55.878;2023-08-17T03:19:15;8.02;;;5.07;;
60088;SDS011;45961;53.574;55.878;2023-08-17T03:20:17;9.35;;;5.40;;
60088;SDS011;45961;53.574;55.878;2023-08-17T03:21:18;6.50;;;4.80;;
60088;SDS011;45961;53.574;55.878;2023-08-17T03:22:21;9.93;;;5.43;;
60088;SDS011;45961;53.574;55.878;2023-08-17T03:24:23;7.73;;;6.60;;
60088;SDS011;45961;53.574;55.878;2023-08-17T03:25:26;11.65;;;7.47;;
60088;SDS011;45961;53.574;55.878;2023-08-17T03:26:28;12.30;;;8.45;;
60088;SDS011;45961;53.574;55.878;2023-08-17T03:28:32;10.00;;;8.27;;
60088;SDS011;45961;53.574;55.878;2023-08-17T03:29:33;11.27;;;8.60;;
60088;SDS011;45961;53.574;55.878;2023-08-17T03:31:37;12.50;;;8.75;;
60088;SDS011;45961;53.574;55.878;2023-08-17T03:32:38;11.88;;;7.82;;
60088;SDS011;45961;53.574;55.878;2023-08-17T03:34:41;13.25;;;7.18;;
60088;SDS011;45961;53.574;55.878;2023-08-17T03:35:42;8.50;;;7.25;;
60088;SDS011;45961;53.574;55.878;2023-08-17T03:36:43;22.35;;;8.32;;
60088;SDS011;45961;53.574;55.878;2023-08-17T03:37:44;12.20;;;6.53;;
60088;SDS011;45961;53.574;55.878;2023-08-17T03:38:46;10.32;;;6.28;;
60088;SDS011;45961;53.574;55.878;2023-08-17T03:39:47;9.90;;;6.90;;
60088;SDS011;45961;53.574;55.878;2023-08-17T03:40:48;11.13;;;6.57;;
60088;SDS011;45961;53.574;55.878;2023-08-17T03:41:49;6.15;;;5.60;;
60088;SDS011;45961;53.574;55.878;2023-08-17T03:43:51;9.40;;;5.63;;
60088;SDS011;45961;53.574;55.878;2023-08-17T03:44:52;10.15;;;6.32;;
60088;SDS011;45961;53.574;55.878;2023-08-17T03:45:53;8.90;;;5.10;;
60088;SDS011;45961;53.574;55.878;2023-08-17T03:46:54;12.57;;;5.72;;
60088;SDS011;45961;53.574;55.878;2023-08-17T03:47:55;10.75;;;5.63;;
60088;SDS011;45961;53.574;55.878;2023-08-17T03:48:56;6.90;;;5.15;;
60088;SDS011;45961;53.574;55.878;2023-08-17T03:49:58;11.43;;;5.95;;
60088;SDS011;45961;53.574;55.878;2023-08-17T03:50:59;7.43;;;5.70;;
60088;SDS011;45961;53.574;55.878;2023-08-17T03:52:02;12.73;;;5.43;;
60088;SDS011;45961;53.574;55.878;2023-08-17T03:53:03;10.68;;;5.72;;
60088;SDS011;45961;53.574;55.878;2023-08-17T03:54:04;6.03;;;4.75;;
60088;SDS011;45961;53.574;55.878;2023-08-17T03:55:06;9.93;;;5.10;;
60088;SDS011;45961;53.574;55.878;2023-08-17T03:56:07;11.32;;;5.55;;
60088;SDS011;45961;53.574;55.878;2023-08-17T03:57:08;8.65;;;5.30;;
60088;SDS011;45961;53.574;55.878;2023-08-17T03:58:10;8.00;;;5.88;;
60088;SDS011;45961;53.574;55.878;2023-08-17T03:59:11;11.55;;;5.55;;
60088;SDS011;45961;53.574;55.878;2023-08-17T04:00:12;11.55;;;6.05;;
60088;SDS011;45961;53.574;55.878;2023-08-17T04:01:16;7.72;;;5.70;;
60088;SDS011;45961;53.574;55.878;2023-08-17T04:03:18;8.65;;;5.38;;
60088;SDS011;45961;53.574;55.878;2023-08-17T04:04:20;11.38;;;5.40;;
60088;SDS011;45961;53.574;55.878;2023-08-17T04:05:21;11.00;;;6.70;;
60088;SDS011;45961;53.574;55.878;2023-08-17T04:06:22;9.07;;;6.15;;
60088;SDS011;45961;53.574;55.878;2023-08-17T04:08:26;10.77;;;6.32;;
60088;SDS011;45961;53.574;55.878;2023-08-17T04:10:28;11.17;;;5.53;;
60088;SDS011;45961;53.574;55.878;2023-08-17T04:11:30;11.57;;;5.43;;
60088;SDS011;45961;53.574;55.878;2023-08-17T04:13:32;9.87;;;5.53;;
60088;SDS011;45961;53.574;55.878;2023-08-17T04:14:33;9.32;;;5.55;;
60088;SDS011;45961;53.574;55.878;2023-08-17T04:15:34;9.23;;;5.40;;
60088;SDS011;45961;53.574;55.878;2023-08-17T04:16:35;6.38;;;5.47;;
60088;SDS011;45961;53.574;55.878;2023-08-17T04:17:36;7.82;;;5.63;;
60088;SDS011;45961;53.574;55.878;2023-08-17T04:18:38;9.73;;;5.40;;
60088;SDS011;45961;53.574;55.878;2023-08-17T04:20:42;8.63;;;5.38;;
60088;SDS011;45961;53.574;55.878;2023-08-17T04:21:43;8.82;;;5.25;;
60088;SDS011;45961;53.574;55.878;2023-08-17T04:22:44;7.80;;;5.10;;
60088;SDS011;45961;53.574;55.878;2023-08-17T04:24:46;7.38;;;4.63;;
60088;SDS011;45961;53.574;55.878;2023-08-17T04:25:48;5.82;;;4.45;;
60088;SDS011;45961;53.574;55.878;2023-08-17T04:26:49;10.68;;;4.57;;
60088;SDS011;45961;53.574;55.878;2023-08-17T04:27:50;8.32;;;4.63;;
60088;SDS011;45961;53.574;55.878;2023-08-17T04:28:51;5.93;;;4.70;;
60088;SDS011;45961;53.574;55.878;2023-08-17T04:30:54;7.05;;;4.60;;
60088;SDS011;45961;53.574;55.878;2023-08-17T04:31:55;8.05;;;4.60;;
60088;SDS011;45961;53.574;55.878;2023-08-17T04:32:56;7.35;;;4.38;;
60088;SDS011;45961;53.574;55.878;2023-08-17T04:34:58;7.43;;;4.30;;
60088;SDS011;45961;53.574;55.878;2023-08-17T04:36:00;9.60;;;4.70;;
60088;SDS011;45961;53.574;55.878;2023-08-17T04:37:02;6.25;;;4.15;;
60088;SDS011;45961;53.574;55.878;2023-08-17T04:38:03;6.20;;;4.28;;
60088;SDS011;45961;53.574;55.878;2023-08-17T04:39:04;7.13;;;4.47;;
60088;SDS011;45961;53.574;55.878;2023-08-17T04:40:06;11.35;;;4.78;;
60088;SDS011;45961;53.574;55.878;2023-08-17T04:41:08;8.15;;;4.22;;
60088;SDS011;45961;53.574;55.878;2023-08-17T04:42:09;9.30;;;4.45;;
60088;SDS011;45961;53.574;55.878;2023-08-17T04:43:11;6.68;;;4.68;;
60088;SDS011;45961;53.574;55.878;2023-08-17T04:44:12;7.90;;;4.70;;
60088;SDS011;45961;53.574;55.878;2023-08-17T04:45:14;7.43;;;4.65;;
60088;SDS011;45961;53.574;55.878;2023-08-17T04:46:17;6.15;;;4.32;;
60088;SDS011;45961;53.574;55.878;2023-08-17T04:48:19;7.03;;;4.83;;
60088;SDS011;45961;53.574;55.878;2023-08-17T04:49:23;8.88;;;4.30;;
60088;SDS011;45961;53.574;55.878;2023-08-17T04:50:24;6.43;;;3.92;;
60088;SDS011;45961;53.574;55.878;2023-08-17T04:51:27;5.00;;;4.15;;
60088;SDS011;45961;53.574;55.878;2023-08-17T04:52:30;8.32;;;3.90;;
60088;SDS011;45961;53.574;55.878;2023-08-17T04:53:31;9.63;;;4.50;;
60088;SDS011;45961;53.574;55.878;2023-08-17T04:54:32;5.95;;;4.00;;
60088;SDS011;45961;53.574;55.878;2023-08-17T04:55:33;6.32;;;3.78;;
60088;SDS011;45961;53.574;55.878;2023-08-17T04:56:34;6.20;;;3.75;;
60088;SDS011;45961;53.574;55.878;2023-08-17T04:57:36;6.00;;;4.00;;
60088;SDS011;45961;53.574;55.878;2023-08-17T04:58:37;5.95;;;4.13;;
60088;SDS011;45961;53.574;55.878;2023-08-17T05:00:39;5.22;;;3.47;;
60088;SDS011;45961;53.574;55.878;2023-08-17T05:01:40;5.22;;;3.53;;
60088;SDS011;45961;53.574;55.878;2023-08-17T05:02:41;6.63;;;3.83;;
60088;SDS011;45961;53.574;55.878;2023-08-17T05:03:43;6.80;;;4.10;;
60088;SDS011;45961;53.574;55.878;2023-08-17T05:05:46;5.47;;;3.90;;
60088;SDS011;45961;53.574;55.878;2023-08-17T05:06:48;8.18;;;4.47;;
60088;SDS011;45961;53.574;55.878;2023-08-17T05:07:49;7.47;;;3.47;;
60088;SDS011;45961;53.574;55.878;2023-08-17T05:08:52;8.90;;;3.45;;
60088;SDS011;45961;53.574;55.878;2023-08-17T05:09:53;6.15;;;3.72;;
60088;SDS011;45961;53.574;55.878;2023-08-17T05:10:54;7.78;;;3.53;;
60088;SDS011;45961;53.574;55.878;2023-08-17T05:12:56;6.43;;;3.58;;
60088;SDS011;45961;53.574;55.878;2023-08-17T05:13:58;6.75;;;3.75;;
60088;SDS011;45961;53.574;55.878;2023-08-17T05:14:59;7.70;;;3.33;;
60088;SDS011;45961;53.574;55.878;2023-08-17T05:16:01;5.75;;;3.53;;
60088;SDS011;45961;53.574;55.878;2023-08-17T05:17:03;7.07;;;3.67;;
60088;SDS011;45961;53.574;55.878;2023-08-17T05:20:07;5.38;;;3.60;;
60088;SDS011;45961;53.574;55.878;2023-08-17T05:21:12;7.45;;;4.40;;
60088;SDS011;45961;53.574;55.878;2023-08-17T05:22:13;4.55;;;3.40;;
60088;SDS011;45961;53.574;55.878;2023-08-17T05:23:14;5.88;;;3.70;;
60088;SDS011;45961;53.574;55.878;2023-08-17T05:24:15;6.18;;;3.20;;
60088;SDS011;45961;53.574;55.878;2023-08-17T05:26:17;4.23;;;2.90;;
60088;SDS011;45961;53.574;55.878;2023-08-17T05:27:18;4.72;;;3.00;;
60088;SDS011;45961;53.574;55.878;2023-08-17T05:28:20;6.47;;;2.88;;
60088;SDS011;45961;53.574;55.878;2023-08-17T05:30:22;6.30;;;3.20;;
60088;SDS011;45961;53.574;55.878;2023-08-17T05:32:26;4.55;;;3.40;;
60088;SDS011;45961;53.574;55.878;2023-08-17T05:33:28;4.60;;;3.35;;
60088;SDS011;45961;53.574;55.878;2023-08-17T05:34:33;6.68;;;3.25;;
60088;SDS011;45961;53.574;55.878;2023-08-17T05:36:35;7.72;;;4.07;;
60088;SDS011;45961;53.574;55.878;2023-08-17T05:37:36;4.93;;;3.60;;
60088;SDS011;45961;53.574;55.878;2023-08-17T05:40:41;8.80;;;3.60;;
60088;SDS011;45961;53.574;55.878;2023-08-17T05:41:42;5.30;;;3.20;;
60088;SDS011;45961;53.574;55.878;2023-08-17T05:42:44;5.15;;;3.10;;
60088;SDS011;45961;53.574;55.878;2023-08-17T05:43:46;5.50;;;3.17;;
60088;SDS011;45961;53.574;55.878;2023-08-17T05:44:47;8.73;;;3.10;;
60088;SDS011;45961;53.574;55.878;2023-08-17T05:45:48;4.10;;;3.00;;
60088;SDS011;45961;53.574;55.878;2023-08-17T05:46:49;4.93;;;3.22;;
60088;SDS011;45961;53.574;55.878;2023-08-17T05:48:52;6.28;;;3.70;;
60088;SDS011;45961;53.574;55.878;2023-08-17T05:50:55;5.27;;;3.40;;
60088;SDS011;45961;53.574;55.878;2023-08-17T05:51:56;6.78;;;3.75;;
60088;SDS011;45961;53.574;55.878;2023-08-17T05:52:57;7.15;;;3.10;;
60088;SDS011;45961;53.574;55.878;2023-08-17T05:54:59;5.00;;;3.10;;
60088;SDS011;45961;53.574;55.878;2023-08-17T05:56:00;6.10;;;2.90;;
60088;SDS011;45961;53.574;55.878;2023-08-17T05:58:02;7.63;;;3.50;;
60088;SDS011;45961;53.574;55.878;2023-08-17T05:59:04;9.00;;;3.65;;
60088;SDS011;45961;53.574;55.878;2023-08-17T06:01:13;5.15;;;2.95;;
60088;SDS011;45961;53.574;55.878;2023-08-17T06:02:14;4.40;;;3.17;;
60088;SDS011;45961;53.574;55.878;2023-08-17T06:03:15;5.15;;;3.03;;
60088;SDS011;45961;53.574;55.878;2023-08-17T06:04:16;4.82;;;2.95;;
60088;SDS011;45961;53.574;55.878;2023-08-17T06:05:17;5.07;;;2.80;;
60088;SDS011;45961;53.574;55.878;2023-08-17T06:06:19;7.05;;;2.70;;
60088;SDS011;45961;53.574;55.878;2023-08-17T06:07:20;5.85;;;2.90;;
60088;SDS011;45961;53.574;55.878;2023-08-17T06:09:22;5.23;;;2.70;;
60088;SDS011;45961;53.574;55.878;2023-08-17T06:11:27;4.68;;;2.70;;
60088;SDS011;45961;53.574;55.878;2023-08-17T06:13:28;4.43;;;2.80;;
60088;SDS011;45961;53.574;55.878;2023-08-17T06:15:30;3.63;;;3.17;;
60088;SDS011;45961;53.574;55.878;2023-08-17T06:16:31;5.32;;;2.97;;
60088;SDS011;45961;53.574;55.878;2023-08-17T06:18:33;9.90;;;3.03;;
60088;SDS011;45961;53.574;55.878;2023-08-17T06:19:35;4.25;;;2.47;;
60088;SDS011;45961;53.574;55.878;2023-08-17T06:21:36;5.57;;;2.83;;
60088;SDS011;45961;53.574;55.878;2023-08-17T06:22:37;4.03;;;2.85;;
60088;SDS011;45961;53.574;55.878;2023-08-17T06:24:39;5.03;;;2.60;;
60088;SDS011;45961;53.574;55.878;2023-08-17T06:25:40;7.20;;;3.25;;
60088;SDS011;45961;53.574;55.878;2023-08-17T06:27:43;5.75;;;3.17;;
60088;SDS011;45961;53.574;55.878;2023-08-17T06:28:44;4.40;;;3.17;;
60088;SDS011;45961;53.574;55.878;2023-08-17T06:30:46;5.63;;;2.78;;
60088;SDS011;45961;53.574;55.878;2023-08-17T06:31:47;4.50;;;3.15;;
60088;SDS011;45961;53.574;55.878;2023-08-17T06:33:51;4.95;;;3.47;;
60088;SDS011;45961;53.574;55.878;2023-08-17T06:34:52;5.68;;;2.83;;
60088;SDS011;45961;53.574;55.878;2023-08-17T06:35:54;5.78;;;3.05;;
60088;SDS011;45961;53.574;55.878;2023-08-17T06:38:00;7.40;;;3.45;;
60088;SDS011;45961;53.574;55.878;2023-08-17T06:39:01;4.13;;;2.78;;
60088;SDS011;45961;53.574;55.878;2023-08-17T06:40:03;6.38;;;2.80;;
60088;SDS011;45961;53.574;55.878;2023-08-17T06:41:05;3.63;;;3.13;;
60088;SDS011;45961;53.574;55.878;2023-08-17T06:43:07;5.23;;;3.00;;
60088;SDS011;45961;53.574;55.878;2023-08-17T06:45:09;7.10;;;2.80;;
60088;SDS011;45961;53.574;55.878;2023-08-17T06:46:11;5.03;;;2.60;;
60088;SDS011;45961;53.574;55.878;2023-08-17T06:48:14;4.00;;;2.75;;
60088;SDS011;45961;53.574;55.878;2023-08-17T06:49:15;5.03;;;2.47;;
60088;SDS011;45961;53.574;55.878;2023-08-17T06:51:17;3.43;;;2.60;;
60088;SDS011;45961;53.574;55.878;2023-08-17T06:52:18;6.90;;;2.83;;
60088;SDS011;45961;53.574;55.878;2023-08-17T06:53:19;3.00;;;2.15;;
60088;SDS011;45961;53.574;55.878;2023-08-17T06:54:20;4.60;;;2.80;;
60088;SDS011;45961;53.574;55.878;2023-08-17T06:56:21;4.77;;;3.00;;
60088;SDS011;45961;53.574;55.878;2023-08-17T06:57:23;3.42;;;2.60;;
60088;SDS011;45961;53.574;55.878;2023-08-17T06:59:25;3.10;;;2.50;;
60088;SDS011;45961;53.574;55.878;2023-08-17T07:00:26;4.53;;;2.15;;
60088;SDS011;45961;53.574;55.878;2023-08-17T07:02:27;4.37;;;2.53;;
60088;SDS011;45961;53.574;55.878;2023-08-17T07:03:28;3.03;;;2.58;;
60088;SDS011;45961;53.574;55.878;2023-08-17T07:04:29;3.85;;;2.63;;
60088;SDS011;45961;53.574;55.878;2023-08-17T07:06:31;5.63;;;2.57;;
60088;SDS011;45961;53.574;55.878;2023-08-17T07:08:33;5.22;;;3.17;;
60088;SDS011;45961;53.574;55.878;2023-08-17T07:09:34;7.15;;;3.15;;
60088;SDS011;45961;53.574;55.878;2023-08-17T07:10:36;3.40;;;2.97;;